sensor_id;sensor_type;location;lat;lon;timestamp;pressure;altitude;pressure_sealevel;temperature;humidity
9189;BME280;34313;50.780;6.084;2023-07-20T00:00:25;99390.78;;;16.63;100.00
9189;BME280;34313;50.780;6.084;2023-07-20T00:02:51;99395.91;;;16.55;100.00
9189;BME280;34313;50.780;6.084;2023-07-20T00:05:16;99395.34;;;16.51;100.00
9189;BME280;34313;50.780;6.084;2023-07-20T00:07:46;99395.63;;;16.48;100.00
9189;BME280;34313;50.780;6.084;2023-07-20T00:10:12;99396.00;;;16.43;100.00
9189;BME280;34313;50.780;6.084;2023-07-20T00:12:37;99397.81;;;16.43;100.00
9189;BME280;34313;50.780;6.084;2023-07-20T00:15:03;99390.34;;;16.37;100.00
9189;BME280;34313;50.780;6.084;2023-07-20T00:17:28;99391.34;;;16.36;100.00
9189;BME280;34313;50.780;6.084;2023-07-20T00:19:53;99393.41;;;16.32;100.00
9189;BME280;34313;50.780;6.084;2023-07-20T00:22:19;99406.44;;;16.35;100.00
9189;BME280;34313;50.780;6.084;2023-07-20T00:24:44;99386.59;;;16.18;100.00
9189;BME280;34313;50.780;6.084;2023-07-20T00:27:09;99394.56;;;16.18;100.00
9189;BME280;34313;50.780;6.084;2023-07-20T00:29:35;99393.56;;;16.19;100.00
9189;BME280;34313;50.780;6.084;2023-07-20T00:32:00;99386.88;;;16.04;100.00
9189;BME280;34313;50.780;6.084;2023-07-20T00:34:25;99389.59;;;15.93;100.00
9189;BME280;34313;50.780;6.084;2023-07-20T00:36:51;99382.56;;;15.92;100.00
9189;BME280;34313;50.780;6.084;2023-07-20T00:39:16;99385.22;;;15.92;100.00
9189;BME280;34313;50.780;6.084;2023-07-20T00:41:42;99392.59;;;15.88;100.00
9189;BME280;34313;50.780;6.084;2023-07-20T00:44:07;99385.28;;;15.80;100.00
9189;BME280;34313;50.780;6.084;2023-07-20T00:46:33;99383.22;;;15.73;100.00
9189;BME280;34313;50.780;6.084;2023-07-20T00:48:58;99387.34;;;15.77;100.00
9189;BME280;34313;50.780;6.084;2023-07-20T00:51:25;99391.03;;;15.74;100.00
9189;BME280;34313;50.780;6.084;2023-07-20T00:53:50;99392.16;;;15.72;100.00
9189;BME280;34313;50.780;6.084;2023-07-20T00:56:16;99381.75;;;15.68;100.00
9189;BME280;34313;50.780;6.084;2023-07-20T00:58:41;99389.63;;;15.70;100.00
9189;BME280;34313;50.780;6.084;2023-07-20T01:01:07;99384.81;;;15.64;100.00
9189;BME280;34313;50.780;6.084;2023-07-20T01:03:32;99391.09;;;15.63;100.00
9189;BME280;34313;50.780;6.084;2023-07-20T01:06:14;99394.22;;;15.57;100.00
9189;BME280;34313;50.780;6.084;2023-07-20T01:09:02;99391.97;;;15.52;100.00
9189;BME280;34313;50.780;6.084;2023-07-20T01:11:41;99374.91;;;15.55;100.00
9189;BME280;34313;50.780;6.084;2023-07-20T01:14:08;99381.69;;;15.59;100.00
9189;BME280;34313;50.780;6.084;2023-07-20T01:16:34;99383.50;;;15.47;100.00
9189;BME280;34313;50.780;6.084;2023-07-20T01:18:59;99388.84;;;15.47;100.00
9189;BME280;34313;50.780;6.084;2023-07-20T01:21:31;99385.09;;;15.38;100.00
9189;BME280;34313;50.780;6.084;2023-07-20T01:24:34;99385.56;;;15.32;100.00
9189;BME280;34313;50.780;6.084;2023-07-20T01:29:49;99384.84;;;15.30;100.00
9189;BME280;34313;50.780;6.084;2023-07-20T01:32:23;99383.53;;;15.24;100.00
9189;BME280;34313;50.780;6.084;2023-07-20T01:34:51;99384.50;;;15.23;100.00
9189;BME280;34313;50.780;6.084;2023-07-20T01:37:17;99378.00;;;15.16;100.00
9189;BME280;34313;50.780;6.084;2023-07-20T01:39:45;99379.69;;;15.17;100.00
9189;BME280;34313;50.780;6.084;2023-07-20T01:42:11;99381.63;;;15.15;100.00
9189;BME280;34313;50.780;6.084;2023-07-20T01:44:37;99378.59;;;15.08;100.00
9189;BME280;34313;50.780;6.084;2023-07-20T01:47:03;99374.13;;;15.09;100.00
9189;BME280;34313;50.780;6.084;2023-07-20T01:49:29;99380.31;;;15.09;100.00
9189;BME280;34313;50.780;6.084;2023-07-20T01:51:54;99381.75;;;15.13;100.00
9189;BME280;34313;50.780;6.084;2023-07-20T01:54:19;99388.63;;;15.05;100.00
9189;BME280;34313;50.780;6.084;2023-07-20T01:56:46;99380.41;;;14.97;100.00
9189;BME280;34313;50.780;6.084;2023-07-20T01:59:11;99373.31;;;15.08;100.00
9189;BME280;34313;50.780;6.084;2023-07-20T02:01:37;99381.97;;;15.10;100.00
9189;BME280;34313;50.780;6.084;2023-07-20T02:04:02;99374.72;;;15.12;100.00
9189;BME280;34313;50.780;6.084;2023-07-20T02:06:27;99374.50;;;15.16;100.00
9189;BME280;34313;50.780;6.084;2023-07-20T02:08:53;99372.09;;;15.12;100.00
9189;BME280;34313;50.780;6.084;2023-07-20T02:11:18;99377.28;;;15.14;100.00
9189;BME280;34313;50.780;6.084;2023-07-20T02:13:43;99366.53;;;15.16;100.00
9189;BME280;34313;50.780;6.084;2023-07-20T02:16:08;99373.75;;;15.25;100.00
9189;BME280;34313;50.780;6.084;2023-07-20T02:18:34;99368.81;;;15.31;100.00
9189;BME280;34313;50.780;6.084;2023-07-20T02:21:01;99369.66;;;15.32;100.00
9189;BME280;34313;50.780;6.084;2023-07-20T02:23:26;99364.44;;;15.42;100.00
9189;BME280;34313;50.780;6.084;2023-07-20T02:25:51;99364.88;;;15.58;100.00
9189;BME280;34313;50.780;6.084;2023-07-20T02:28:17;99363.16;;;15.68;100.00
9189;BME280;34313;50.780;6.084;2023-07-20T02:30:42;99364.25;;;15.77;100.00
9189;BME280;34313;50.780;6.084;2023-07-20T02:33:08;99377.53;;;15.88;100.00
9189;BME280;34313;50.780;6.084;2023-07-20T02:35:33;99374.81;;;16.00;100.00
9189;BME280;34313;50.780;6.084;2023-07-20T02:37:58;99373.84;;;16.01;100.00
9189;BME280;34313;50.780;6.084;2023-07-20T02:40:24;99377.44;;;16.11;99.65
9189;BME280;34313;50.780;6.084;2023-07-20T02:42:49;99370.63;;;16.18;98.83
9189;BME280;34313;50.780;6.084;2023-07-20T02:45:15;99372.44;;;16.18;98.95
9189;BME280;34313;50.780;6.084;2023-07-20T02:47:41;99383.16;;;16.28;98.14
9189;BME280;34313;50.780;6.084;2023-07-20T02:50:07;99381.06;;;16.31;97.77
9189;BME280;34313;50.780;6.084;2023-07-20T02:52:33;99386.41;;;16.31;97.09
9189;BME280;34313;50.780;6.084;2023-07-20T02:54:58;99373.88;;;16.22;97.51
9189;BME280;34313;50.780;6.084;2023-07-20T02:57:24;99383.72;;;16.31;97.14
9189;BME280;34313;50.780;6.084;2023-07-20T02:59:49;99386.28;;;16.33;96.93
9189;BME280;34313;50.780;6.084;2023-07-20T03:02:14;99386.84;;;16.36;96.67
9189;BME280;34313;50.780;6.084;2023-07-20T03:04:40;99391.63;;;16.42;95.92
9189;BME280;34313;50.780;6.084;2023-07-20T03:07:05;99391.38;;;16.45;95.85
9189;BME280;34313;50.780;6.084;2023-07-20T03:09:32;99380.25;;;16.31;95.98
9189;BME280;34313;50.780;6.084;2023-07-20T03:11:57;99399.00;;;16.50;95.02
9189;BME280;34313;50.780;6.084;2023-07-20T03:14:23;99406.38;;;16.47;95.33
9189;BME280;34313;50.780;6.084;2023-07-20T03:16:48;99401.06;;;16.47;94.91
9189;BME280;34313;50.780;6.084;2023-07-20T03:19:14;99394.50;;;16.51;94.66
9189;BME280;34313;50.780;6.084;2023-07-20T03:21:39;99394.16;;;16.44;94.46
9189;BME280;34313;50.780;6.084;2023-07-20T03:24:07;99398.66;;;16.43;94.72
9189;BME280;34313;50.780;6.084;2023-07-20T03:26:33;99394.00;;;16.36;94.90
9189;BME280;34313;50.780;6.084;2023-07-20T03:28:58;99398.19;;;16.38;94.79
9189;BME280;34313;50.780;6.084;2023-07-20T03:31:23;99398.56;;;16.34;95.06
9189;BME280;34313;50.780;6.084;2023-07-20T03:33:48;99397.03;;;16.31;95.07
9189;BME280;34313;50.780;6.084;2023-07-20T03:36:14;99397.34;;;16.17;95.89
9189;BME280;34313;50.780;6.084;2023-07-20T03:38:39;99395.59;;;16.06;96.42
9189;BME280;34313;50.780;6.084;2023-07-20T03:41:04;99393.94;;;15.94;97.14
9189;BME280;34313;50.780;6.084;2023-07-20T03:43:30;99395.44;;;16.07;96.93
9189;BME280;34313;50.780;6.084;2023-07-20T03:45:55;99399.44;;;16.02;97.47
9189;BME280;34313;50.780;6.084;2023-07-20T03:48:23;99405.88;;;15.99;97.86
9189;BME280;34313;50.780;6.084;2023-07-20T03:50:50;99414.69;;;16.00;98.02
9189;BME280;34313;50.780;6.084;2023-07-20T03:53:16;99419.88;;;16.01;98.19
9189;BME280;34313;50.780;6.084;2023-07-20T03:55:44;99405.81;;;16.11;98.10
9189;BME280;34313;50.780;6.084;2023-07-20T03:58:11;99411.94;;;16.22;97.34
9189;BME280;34313;50.780;6.084;2023-07-20T04:00:36;99403.25;;;16.20;97.29
9189;BME280;34313;50.780;6.084;2023-07-20T04:03:02;99410.97;;;16.23;97.49
9189;BME280;34313;50.780;6.084;2023-07-20T04:05:27;99419.72;;;16.35;96.93
9189;BME280;34313;50.780;6.084;2023-07-20T04:07:52;99409.38;;;16.32;96.66
9189;BME280;34313;50.780;6.084;2023-07-20T04:10:18;99416.56;;;16.41;96.66
9189;BME280;34313;50.780;6.084;2023-07-20T04:12:44;99422.00;;;16.40;96.47
9189;BME280;34313;50.780;6.084;2023-07-20T04:15:10;99414.88;;;16.40;96.27
9189;BME280;34313;50.780;6.084;2023-07-20T04:17:35;99413.78;;;16.43;96.28
9189;BME280;34313;50.780;6.084;2023-07-20T04:20:00;99423.06;;;16.49;96.08
9189;BME280;34313;50.780;6.084;2023-07-20T04:22:26;99424.03;;;16.48;96.38
9189;BME280;34313;50.780;6.084;2023-07-20T04:24:52;99427.72;;;16.56;95.91
9189;BME280;34313;50.780;6.084;2023-07-20T04:27:17;99418.69;;;16.48;96.46
9189;BME280;34313;50.780;6.084;2023-07-20T04:29:43;99418.31;;;16.52;96.13
9189;BME280;34313;50.780;6.084;2023-07-20T04:32:08;99421.09;;;16.51;95.96
9189;BME280;34313;50.780;6.084;2023-07-20T04:34:34;99430.50;;;16.55;95.81
9189;BME280;34313;50.780;6.084;2023-07-20T04:37:02;99429.53;;;16.56;95.80
9189;BME280;34313;50.780;6.084;2023-07-20T04:39:28;99429.41;;;16.57;95.92
9189;BME280;34313;50.780;6.084;2023-07-20T04:41:53;99429.09;;;16.72;95.20
9189;BME280;34313;50.780;6.084;2023-07-20T04:44:19;99436.44;;;16.79;94.90
9189;BME280;34313;50.780;6.084;2023-07-20T04:46:44;99441.38;;;16.84;94.80
9189;BME280;34313;50.780;6.084;2023-07-20T04:49:10;99433.50;;;16.82;94.81
9189;BME280;34313;50.780;6.084;2023-07-20T04:51:38;99439.94;;;16.80;95.00
9189;BME280;34313;50.780;6.084;2023-07-20T04:54:03;99441.38;;;16.84;95.05
9189;BME280;34313;50.780;6.084;2023-07-20T04:56:29;99437.97;;;16.82;95.04
9189;BME280;34313;50.780;6.084;2023-07-20T04:58:54;99439.81;;;16.81;95.54
9189;BME280;34313;50.780;6.084;2023-07-20T05:01:19;99441.84;;;16.89;95.21
9189;BME280;34313;50.780;6.084;2023-07-20T05:03:45;99434.56;;;16.91;95.28
9189;BME280;34313;50.780;6.084;2023-07-20T05:06:10;99435.78;;;17.08;94.38
9189;BME280;34313;50.780;6.084;2023-07-20T05:08:36;99435.53;;;17.21;93.00
9189;BME280;34313;50.780;6.084;2023-07-20T05:11:01;99433.38;;;17.46;92.21
9189;BME280;34313;50.780;6.084;2023-07-20T05:13:26;99436.28;;;17.64;91.09
9189;BME280;34313;50.780;6.084;2023-07-20T05:15:52;99436.59;;;17.90;90.01
9189;BME280;34313;50.780;6.084;2023-07-20T05:18:18;99436.25;;;18.24;87.19
9189;BME280;34313;50.780;6.084;2023-07-20T05:20:46;99434.38;;;18.63;85.46
9189;BME280;34313;50.780;6.084;2023-07-20T05:23:12;99416.75;;;19.37;83.12
9189;BME280;34313;50.780;6.084;2023-07-20T05:25:37;99418.25;;;20.49;77.35
9189;BME280;34313;50.780;6.084;2023-07-20T05:28:03;99422.34;;;20.80;73.50
9189;BME280;34313;50.780;6.084;2023-07-20T05:30:28;99431.47;;;21.56;70.38
9189;BME280;34313;50.780;6.084;2023-07-20T05:32:54;99420.94;;;22.62;65.93
9189;BME280;34313;50.780;6.084;2023-07-20T05:35:20;99426.31;;;24.75;59.95
9189;BME280;34313;50.780;6.084;2023-07-20T05:37:45;99421.56;;;27.17;51.52
9189;BME280;34313;50.780;6.084;2023-07-20T05:40:11;99408.47;;;28.78;46.29
9189;BME280;34313;50.780;6.084;2023-07-20T05:42:38;99429.91;;;28.39;44.83
9189;BME280;34313;50.780;6.084;2023-07-20T05:45:03;99435.09;;;27.24;46.88
9189;BME280;34313;50.780;6.084;2023-07-20T05:47:28;99439.16;;;26.14;49.25
9189;BME280;34313;50.780;6.084;2023-07-20T05:49:54;99438.13;;;24.74;52.42
9189;BME280;34313;50.780;6.084;2023-07-20T05:52:19;99449.47;;;22.88;57.28
9189;BME280;34313;50.780;6.084;2023-07-20T05:54:45;99443.16;;;21.89;60.88
9189;BME280;34313;50.780;6.084;2023-07-20T05:57:10;99449.78;;;21.00;64.14
9189;BME280;34313;50.780;6.084;2023-07-20T05:59:36;99458.88;;;20.45;66.84
9189;BME280;34313;50.780;6.084;2023-07-20T06:02:03;99460.63;;;20.36;69.00
9189;BME280;34313;50.780;6.084;2023-07-20T06:04:29;99459.88;;;20.26;69.64
9189;BME280;34313;50.780;6.084;2023-07-20T06:06:54;99459.97;;;20.34;69.52
9189;BME280;34313;50.780;6.084;2023-07-20T06:09:19;99456.41;;;20.33;70.01
9189;BME280;34313;50.780;6.084;2023-07-20T06:11:44;99455.94;;;20.56;69.51
9189;BME280;34313;50.780;6.084;2023-07-20T06:14:10;99461.94;;;20.68;69.05
9189;BME280;34313;50.780;6.084;2023-07-20T06:16:36;99458.69;;;20.82;68.48
9189;BME280;34313;50.780;6.084;2023-07-20T06:19:01;99457.13;;;20.98;67.88
9189;BME280;34313;50.780;6.084;2023-07-20T06:21:26;99458.06;;;21.14;66.97
9189;BME280;34313;50.780;6.084;2023-07-20T06:23:52;99461.66;;;21.31;66.02
9189;BME280;34313;50.780;6.084;2023-07-20T06:26:17;99464.31;;;21.23;65.93
9189;BME280;34313;50.780;6.084;2023-07-20T06:28:42;99462.53;;;21.32;66.10
9189;BME280;34313;50.780;6.084;2023-07-20T06:31:07;99459.41;;;21.45;65.16
9189;BME280;34313;50.780;6.084;2023-07-20T06:33:33;99453.59;;;22.00;63.66
9189;BME280;34313;50.780;6.084;2023-07-20T06:35:59;99452.34;;;22.62;61.25
9189;BME280;34313;50.780;6.084;2023-07-20T06:38:25;99446.09;;;23.11;58.95
9189;BME280;34313;50.780;6.084;2023-07-20T06:40:51;99447.56;;;23.69;56.65
9189;BME280;34313;50.780;6.084;2023-07-20T06:43:16;99459.69;;;23.96;55.90
9189;BME280;34313;50.780;6.084;2023-07-20T06:45:42;99461.31;;;23.83;55.75
9189;BME280;34313;50.780;6.084;2023-07-20T06:48:07;99462.63;;;23.78;55.55
9189;BME280;34313;50.780;6.084;2023-07-20T06:50:33;99467.28;;;23.62;55.96
9189;BME280;34313;50.780;6.084;2023-07-20T06:52:59;99454.72;;;23.77;55.34
9189;BME280;34313;50.780;6.084;2023-07-20T06:55:25;99465.59;;;23.60;55.17
9189;BME280;34313;50.780;6.084;2023-07-20T06:57:51;99461.41;;;23.58;55.59
9189;BME280;34313;50.780;6.084;2023-07-20T07:00:17;99460.84;;;23.71;55.45
9189;BME280;34313;50.780;6.084;2023-07-20T07:02:42;99464.09;;;23.58;55.86
9189;BME280;34313;50.780;6.084;2023-07-20T07:05:07;99457.25;;;23.78;55.37
9189;BME280;34313;50.780;6.084;2023-07-20T07:07:33;99457.59;;;24.38;53.58
9189;BME280;34313;50.780;6.084;2023-07-20T07:10:00;99464.19;;;24.12;53.67
9189;BME280;34313;50.780;6.084;2023-07-20T07:12:25;99467.19;;;23.78;53.51
9189;BME280;34313;50.780;6.084;2023-07-20T07:14:51;99465.00;;;24.36;53.17
9189;BME280;34313;50.780;6.084;2023-07-20T07:17:17;99454.56;;;26.56;47.19
9189;BME280;34313;50.780;6.084;2023-07-20T07:19:43;99458.25;;;30.91;39.25
9189;BME280;34313;50.780;6.084;2023-07-20T07:22:09;99450.81;;;34.39;32.40
9189;BME280;34313;50.780;6.084;2023-07-20T07:24:35;99455.22;;;33.18;32.00
9189;BME280;34313;50.780;6.084;2023-07-20T07:27:01;99460.84;;;31.04;34.93
9189;BME280;34313;50.780;6.084;2023-07-20T07:29:26;99463.34;;;28.66;39.26
9189;BME280;34313;50.780;6.084;2023-07-20T07:31:52;99463.06;;;26.75;42.73
9189;BME280;34313;50.780;6.084;2023-07-20T07:34:17;99468.69;;;27.37;42.51
9189;BME280;34313;50.780;6.084;2023-07-20T07:36:43;99455.91;;;30.69;37.03
9189;BME280;34313;50.780;6.084;2023-07-20T07:39:08;99470.28;;;33.97;31.61
9189;BME280;34313;50.780;6.084;2023-07-20T07:41:34;99467.13;;;37.26;27.55
9189;BME280;34313;50.780;6.084;2023-07-20T07:43:59;99470.03;;;39.83;23.79
9189;BME280;34313;50.780;6.084;2023-07-20T07:46:25;99468.56;;;42.58;21.33
9189;BME280;34313;50.780;6.084;2023-07-20T07:48:50;99475.28;;;44.46;18.80
9189;BME280;34313;50.780;6.084;2023-07-20T07:51:15;99472.19;;;44.70;17.38
9189;BME280;34313;50.780;6.084;2023-07-20T07:53:41;99464.31;;;42.27;19.29
9189;BME280;34313;50.780;6.084;2023-07-20T07:56:07;99472.53;;;41.51;20.00
9189;BME280;34313;50.780;6.084;2023-07-20T07:58:33;99462.50;;;41.99;18.49
9189;BME280;34313;50.780;6.084;2023-07-20T08:00:59;99468.63;;;40.40;20.39
9189;BME280;34313;50.780;6.084;2023-07-20T08:03:24;99464.66;;;40.12;20.27
9189;BME280;34313;50.780;6.084;2023-07-20T08:05:49;99456.56;;;41.67;19.39
9189;BME280;34313;50.780;6.084;2023-07-20T08:08:15;99463.84;;;40.12;20.70
9189;BME280;34313;50.780;6.084;2023-07-20T08:10:40;99463.09;;;38.17;22.46
9189;BME280;34313;50.780;6.084;2023-07-20T08:13:05;99456.34;;;35.29;25.24
9189;BME280;34313;50.780;6.084;2023-07-20T08:15:31;99461.19;;;35.04;25.53
9189;BME280;34313;50.780;6.084;2023-07-20T08:17:56;99462.50;;;35.80;24.86
9189;BME280;34313;50.780;6.084;2023-07-20T08:20:22;99457.28;;;34.33;26.73
9189;BME280;34313;50.780;6.084;2023-07-20T08:22:52;99465.47;;;33.75;27.23
9189;BME280;34313;50.780;6.084;2023-07-20T08:25:18;99462.50;;;33.65;27.21
9189;BME280;34313;50.780;6.084;2023-07-20T08:27:43;99454.25;;;33.12;27.73
9189;BME280;34313;50.780;6.084;2023-07-20T08:30:11;99462.41;;;33.60;27.44
9189;BME280;34313;50.780;6.084;2023-07-20T08:32:36;99461.63;;;33.24;27.19
9189;BME280;34313;50.780;6.084;2023-07-20T08:35:01;99461.25;;;32.85;27.63
9189;BME280;34313;50.780;6.084;2023-07-20T08:37:27;99474.28;;;31.98;29.27
9189;BME280;34313;50.780;6.084;2023-07-20T08:39:52;99475.38;;;30.98;31.35
9189;BME280;34313;50.780;6.084;2023-07-20T08:42:17;99481.88;;;29.95;33.41
9189;BME280;34313;50.780;6.084;2023-07-20T08:44:43;99478.41;;;29.81;33.33
9189;BME280;34313;50.780;6.084;2023-07-20T08:47:13;99481.38;;;32.18;29.91
9189;BME280;34313;50.780;6.084;2023-07-20T08:49:41;99479.00;;;32.21;29.34
9189;BME280;34313;50.780;6.084;2023-07-20T08:52:07;99466.72;;;32.85;28.64
9189;BME280;34313;50.780;6.084;2023-07-20T08:54:33;99470.78;;;34.39;26.87
9189;BME280;34313;50.780;6.084;2023-07-20T08:57:04;99464.34;;;35.52;25.32
9189;BME280;34313;50.780;6.084;2023-07-20T08:59:30;99457.31;;;36.65;24.02
9189;BME280;34313;50.780;6.084;2023-07-20T09:02:00;99467.63;;;35.32;24.83
9189;BME280;34313;50.780;6.084;2023-07-20T09:04:25;99465.53;;;34.83;25.52
9189;BME280;34313;50.780;6.084;2023-07-20T09:06:51;99468.81;;;34.35;25.81
9189;BME280;34313;50.780;6.084;2023-07-20T09:09:17;99466.00;;;34.30;25.85
9189;BME280;34313;50.780;6.084;2023-07-20T09:11:42;99454.56;;;34.83;25.68
9189;BME280;34313;50.780;6.084;2023-07-20T09:14:09;99455.53;;;35.28;25.12
9189;BME280;34313;50.780;6.084;2023-07-20T09:16:49;99461.56;;;36.46;23.98
9189;BME280;34313;50.780;6.084;2023-07-20T09:19:16;99456.13;;;37.21;22.66
9189;BME280;34313;50.780;6.084;2023-07-20T09:21:44;99459.16;;;36.87;22.88
9189;BME280;34313;50.780;6.084;2023-07-20T09:24:10;99464.13;;;36.58;22.75
9189;BME280;34313;50.780;6.084;2023-07-20T09:26:41;99455.09;;;36.95;22.44
9189;BME280;34313;50.780;6.084;2023-07-20T09:29:07;99455.94;;;36.30;22.82
9189;BME280;34313;50.780;6.084;2023-07-20T09:31:34;99459.78;;;34.51;24.21
9189;BME280;34313;50.780;6.084;2023-07-20T09:34:00;99452.00;;;34.14;24.90
9189;BME280;34313;50.780;6.084;2023-07-20T09:36:29;99452.34;;;34.18;25.04
9189;BME280;34313;50.780;6.084;2023-07-20T09:38:54;99447.09;;;34.28;25.23
9189;BME280;34313;50.780;6.084;2023-07-20T09:41:21;99461.50;;;34.23;25.55
9189;BME280;34313;50.780;6.084;2023-07-20T09:43:46;99453.00;;;33.67;26.45
9189;BME280;34313;50.780;6.084;2023-07-20T09:46:15;99432.22;;;32.48;27.56
9189;BME280;34313;50.780;6.084;2023-07-20T09:48:51;99463.66;;;31.60;28.69
9189;BME280;34313;50.780;6.084;2023-07-20T09:51:17;99454.25;;;30.94;29.74
9189;BME280;34313;50.780;6.084;2023-07-20T09:53:43;99443.88;;;30.27;30.26
9189;BME280;34313;50.780;6.084;2023-07-20T09:56:09;99440.03;;;30.03;30.83
9189;BME280;34313;50.780;6.084;2023-07-20T09:58:37;99439.00;;;30.04;31.14
9189;BME280;34313;50.780;6.084;2023-07-20T10:01:05;99441.38;;;30.57;30.51
9189;BME280;34313;50.780;6.084;2023-07-20T10:03:33;99450.47;;;30.44;30.81
9189;BME280;34313;50.780;6.084;2023-07-20T10:06:03;99421.63;;;30.05;31.29
9189;BME280;34313;50.780;6.084;2023-07-20T10:08:32;99425.41;;;29.52;31.57
9189;BME280;34313;50.780;6.084;2023-07-20T10:11:00;99452.53;;;29.65;31.75
9189;BME280;34313;50.780;6.084;2023-07-20T10:13:28;99453.00;;;29.49;32.27
9189;BME280;34313;50.780;6.084;2023-07-20T10:15:59;99450.38;;;29.15;32.04
9189;BME280;34313;50.780;6.084;2023-07-20T10:18:31;99462.25;;;28.94;31.96
9189;BME280;34313;50.780;6.084;2023-07-20T10:21:00;99450.78;;;28.92;31.81
9189;BME280;34313;50.780;6.084;2023-07-20T10:23:28;99454.16;;;28.88;32.72
9189;BME280;34313;50.780;6.084;2023-07-20T10:25:54;99459.16;;;28.84;33.29
9189;BME280;34313;50.780;6.084;2023-07-20T10:28:20;99441.63;;;28.93;32.91
9189;BME280;34313;50.780;6.084;2023-07-20T10:30:45;99443.06;;;28.42;33.74
9189;BME280;34313;50.780;6.084;2023-07-20T10:33:11;99454.34;;;28.66;33.48
9189;BME280;34313;50.780;6.084;2023-07-20T10:35:58;99442.69;;;28.79;32.78
9189;BME280;34313;50.780;6.084;2023-07-20T10:41:15;99448.75;;;28.54;32.70
9189;BME280;34313;50.780;6.084;2023-07-20T10:43:45;99437.97;;;27.99;33.69
9189;BME280;34313;50.780;6.084;2023-07-20T10:46:11;99426.56;;;28.10;33.84
9189;BME280;34313;50.780;6.084;2023-07-20T10:49:04;99432.38;;;27.59;34.82
9189;BME280;34313;50.780;6.084;2023-07-20T10:51:30;99438.44;;;26.91;36.00
9189;BME280;34313;50.780;6.084;2023-07-20T10:54:07;99435.56;;;27.28;35.03
9189;BME280;34313;50.780;6.084;2023-07-20T10:56:33;99431.63;;;27.72;34.79
9189;BME280;34313;50.780;6.084;2023-07-20T10:59:00;99431.38;;;27.67;34.30
9189;BME280;34313;50.780;6.084;2023-07-20T11:01:29;99435.13;;;27.66;34.16
9189;BME280;34313;50.780;6.084;2023-07-20T11:03:58;99430.56;;;27.73;34.08
9189;BME280;34313;50.780;6.084;2023-07-20T11:09:04;99414.00;;;27.96;33.29
9189;BME280;34313;50.780;6.084;2023-07-20T11:11:33;99424.38;;;27.86;33.13
9189;BME280;34313;50.780;6.084;2023-07-20T11:14:01;99437.63;;;27.67;33.59
9189;BME280;34313;50.780;6.084;2023-07-20T11:16:53;99421.81;;;27.71;33.31
9189;BME280;34313;50.780;6.084;2023-07-20T11:19:25;99417.06;;;27.86;32.61
9189;BME280;34313;50.780;6.084;2023-07-20T11:21:53;99424.25;;;27.59;33.46
9189;BME280;34313;50.780;6.084;2023-07-20T11:24:18;99416.31;;;27.44;33.08
9189;BME280;34313;50.780;6.084;2023-07-20T11:29:13;99416.34;;;27.51;32.71
9189;BME280;34313;50.780;6.084;2023-07-20T11:31:40;99396.78;;;27.21;33.76
9189;BME280;34313;50.780;6.084;2023-07-20T11:34:10;99416.81;;;26.98;34.47
9189;BME280;34313;50.780;6.084;2023-07-20T11:36:36;99381.50;;;26.71;33.60
9189;BME280;34313;50.780;6.084;2023-07-20T11:39:02;99402.75;;;26.74;34.28
9189;BME280;34313;50.780;6.084;2023-07-20T11:41:30;99412.97;;;27.07;33.91
9189;BME280;34313;50.780;6.084;2023-07-20T11:43:56;99412.31;;;27.05;34.30
9189;BME280;34313;50.780;6.084;2023-07-20T11:46:22;99411.66;;;26.96;33.95
9189;BME280;34313;50.780;6.084;2023-07-20T11:48:47;99408.34;;;26.73;34.35
9189;BME280;34313;50.780;6.084;2023-07-20T11:51:16;99403.50;;;26.62;34.20
9189;BME280;34313;50.780;6.084;2023-07-20T11:53:45;99403.75;;;26.23;34.39
9189;BME280;34313;50.780;6.084;2023-07-20T11:56:12;99385.94;;;25.93;35.36
9189;BME280;34313;50.780;6.084;2023-07-20T11:58:42;99405.44;;;26.25;35.49
9189;BME280;34313;50.780;6.084;2023-07-20T12:01:08;99389.38;;;26.45;35.12
9189;BME280;34313;50.780;6.084;2023-07-20T12:03:34;99373.16;;;26.16;35.03
9189;BME280;34313;50.780;6.084;2023-07-20T12:06:07;99391.50;;;25.84;35.37
9189;BME280;34313;50.780;6.084;2023-07-20T12:08:33;99396.72;;;26.29;34.74
9189;BME280;34313;50.780;6.084;2023-07-20T12:10:59;99395.78;;;26.37;34.51
9189;BME280;34313;50.780;6.084;2023-07-20T12:13:35;99385.59;;;26.17;35.38
9189;BME280;34313;50.780;6.084;2023-07-20T12:16:08;99382.03;;;25.37;37.05
9189;BME280;34313;50.780;6.084;2023-07-20T12:18:35;99390.66;;;25.33;37.18
9189;BME280;34313;50.780;6.084;2023-07-20T12:21:01;99390.34;;;25.57;37.16
9189;BME280;34313;50.780;6.084;2023-07-20T12:23:26;99371.38;;;25.51;36.38
9189;BME280;34313;50.780;6.084;2023-07-20T12:25:51;99387.09;;;25.47;35.83
9189;BME280;34313;50.780;6.084;2023-07-20T12:28:19;99374.75;;;25.08;36.89
9189;BME280;34313;50.780;6.084;2023-07-20T12:30:45;99377.06;;;24.96;36.59
9189;BME280;34313;50.780;6.084;2023-07-20T12:33:11;99353.25;;;24.70;36.83
9189;BME280;34313;50.780;6.084;2023-07-20T12:35:40;99356.88;;;25.07;36.51
9189;BME280;34313;50.780;6.084;2023-07-20T12:38:06;99373.41;;;25.63;35.50
9189;BME280;34313;50.780;6.084;2023-07-20T12:40:31;99360.81;;;25.92;35.26
9189;BME280;34313;50.780;6.084;2023-07-20T12:42:57;99362.09;;;26.11;34.86
9189;BME280;34313;50.780;6.084;2023-07-20T12:45:22;99359.88;;;26.21;34.73
9189;BME280;34313;50.780;6.084;2023-07-20T12:47:48;99364.09;;;25.88;35.41
9189;BME280;34313;50.780;6.084;2023-07-20T12:50:19;99352.97;;;25.76;35.56
9189;BME280;34313;50.780;6.084;2023-07-20T12:52:44;99366.06;;;25.79;35.57
9189;BME280;34313;50.780;6.084;2023-07-20T12:55:13;99356.81;;;26.03;35.38
9189;BME280;34313;50.780;6.084;2023-07-20T12:57:38;99349.56;;;26.03;35.45
9189;BME280;34313;50.780;6.084;2023-07-20T13:00:09;99360.00;;;26.13;35.20
9189;BME280;34313;50.780;6.084;2023-07-20T13:02:35;99359.75;;;26.30;35.07
9189;BME280;34313;50.780;6.084;2023-07-20T13:05:02;99354.59;;;26.35;34.49
9189;BME280;34313;50.780;6.084;2023-07-20T13:07:32;99354.41;;;26.65;34.04
9189;BME280;34313;50.780;6.084;2023-07-20T13:09:58;99343.75;;;26.85;33.15
9189;BME280;34313;50.780;6.084;2023-07-20T13:12:28;99353.56;;;26.92;33.26
9189;BME280;34313;50.780;6.084;2023-07-20T13:14:54;99348.38;;;26.97;32.33
9189;BME280;34313;50.780;6.084;2023-07-20T13:17:21;99353.72;;;27.26;32.21